Time;durP1;ratioP1;P1;durP2;ratioP2;P2;SDS_P1;SDS_P2;PMS_P1;PMS_P2;Temp;Humidity;BMP_temperature;BMP_pressure;BME280_temperature;BME280_humidity;BME280_pressure;Samples;Min_cycle;Max_cycle;Signal;HPM_P1;HPM_P2
2021/08/27 00:01:08;;;;;;;5.50;2.40;;;;;;;;;;4955877;29;20043;-86
2021/08/27 00:03:35;;;;;;;7.65;2.60;;;;;;;;;;4954205;29;20049;-89
2021/08/27 00:06:01;;;;;;;4.18;2.35;;;;;;;;;;4955728;29;20388;-85
2021/08/27 00:08:27;;;;;;;5.82;2.88;;;;;;;;;;4954207;29;20031;-87
2021/08/27 00:10:53;;;;;;;5.60;2.83;;;;;;;;;;4953978;29;20062;-87
2021/08/27 00:13:20;;;;;;;4.60;2.50;;;;;;;;;;4954006;29;20043;-89
2021/08/27 00:15:46;;;;;;;4.28;2.40;;;;;;;;;;4954068;29;20034;-86
2021/08/27 00:18:12;;;;;;;4.22;2.30;;;;;;;;;;4954014;29;20042;-89
2021/08/27 00:20:39;;;;;;;5.63;2.47;;;;;;;;;;4955429;29;20023;-89
2021/08/27 00:23:06;;;;;;;7.40;2.58;;;;;;;;;;4955264;29;20043;-87
2021/08/27 00:25:32;;;;;;;4.32;2.03;;;;;;;;;;4956365;28;20035;-89
2021/08/27 00:27:59;;;;;;;7.03;2.70;;;;;;;;;;4958983;29;20102;-87
2021/08/27 00:30:25;;;;;;;5.00;2.35;;;;;;;;;;4959039;29;20031;-86
2021/08/27 00:32:51;;;;;;;5.45;2.28;;;;;;;;;;4958722;29;20413;-87
2021/08/27 00:35:17;;;;;;;3.88;2.05;;;;;;;;;;4957714;29;20027;-87
2021/08/27 00:37:43;;;;;;;4.70;2.25;;;;;;;;;;4957506;29;20038;-86
2021/08/27 00:40:10;;;;;;;5.88;2.83;;;;;;;;;;4957927;29;20108;-86
2021/08/27 00:42:36;;;;;;;4.93;2.30;;;;;;;;;;4957625;29;20078;-87
2021/08/27 00:45:02;;;;;;;5.97;2.53;;;;;;;;;;4957331;29;20078;-86
2021/08/27 00:47:28;;;;;;;11.93;2.60;;;;;;;;;;4957305;29;20027;-86
2021/08/27 00:49:54;;;;;;;4.53;2.38;;;;;;;;;;4957275;29;20465;-87
2021/08/27 00:52:21;;;;;;;5.28;2.30;;;;;;;;;;4957629;29;20035;-88
2021/08/27 00:54:52;;;;;;;7.80;2.22;;;;;;;;;;4958614;29;20027;-86
2021/08/27 00:57:19;;;;;;;5.95;3.05;;;;;;;;;;4957249;29;20031;-88
2021/08/27 00:59:45;;;;;;;3.78;2.10;;;;;;;;;;4958477;29;20039;-89
2021/08/27 01:02:11;;;;;;;5.97;1.90;;;;;;;;;;4958495;29;20369;-85
2021/08/27 01:04:38;;;;;;;3.97;2.30;;;;;;;;;;4957094;29;20042;-88
2021/08/27 01:07:26;;;;;;;4.75;2.30;;;;;;;;;;4958407;29;20038;-87
2021/08/27 01:10:09;;;;;;;6.30;2.50;;;;;;;;;;4958782;29;20134;-87
2021/08/27 01:12:42;;;;;;;6.53;2.60;;;;;;;;;;4956880;29;20126;-86
2021/08/27 01:15:15;;;;;;;4.75;2.50;;;;;;;;;;4956940;29;20027;-86
2021/08/27 01:17:43;;;;;;;4.03;2.40;;;;;;;;;;4956837;29;20428;-86
2021/08/27 01:20:33;;;;;;;4.45;2.88;;;;;;;;;;4956792;29;20042;-84
2021/08/27 01:23:11;;;;;;;6.88;2.63;;;;;;;;;;4957311;29;20380;-87
2021/08/27 01:25:38;;;;;;;4.70;2.80;;;;;;;;;;4956603;29;20492;-89
2021/08/27 01:28:06;;;;;;;5.13;2.58;;;;;;;;;;4958364;29;20028;-88
2021/08/27 01:30:50;;;;;;;4.15;2.33;;;;;;;;;;4956519;29;20432;-86
2021/08/27 01:33:18;;;;;;;4.13;2.40;;;;;;;;;;4956580;29;20477;-89
2021/08/27 01:36:03;;;;;;;5.20;2.70;;;;;;;;;;4956239;28;20114;-85
2021/08/27 01:38:34;;;;;;;4.65;2.42;;;;;;;;;;4956837;29;20125;-86
2021/08/27 01:41:01;;;;;;;4.38;2.40;;;;;;;;;;4957807;29;20059;-87
2021/08/27 01:43:27;;;;;;;3.92;2.42;;;;;;;;;;4957646;29;20035;-89
2021/08/27 01:45:54;;;;;;;5.00;2.40;;;;;;;;;;4958065;29;20523;-84
2021/08/27 01:48:21;;;;;;;5.28;2.92;;;;;;;;;;4956472;29;20031;-87
2021/08/27 01:50:47;;;;;;;4.13;2.20;;;;;;;;;;4957536;29;20027;-88
2021/08/27 01:53:14;;;;;;;4.55;2.85;;;;;;;;;;4956142;29;20476;-88
2021/08/27 01:55:40;;;;;;;4.70;2.20;;;;;;;;;;4956308;29;20027;-87
2021/08/27 01:58:07;;;;;;;3.50;2.17;;;;;;;;;;4956389;29;20390;-86
2021/08/27 02:00:33;;;;;;;3.85;1.92;;;;;;;;;;4956155;29;20433;-88
2021/08/27 02:03:00;;;;;;;6.13;2.20;;;;;;;;;;4957430;29;20025;-86
2021/08/27 02:05:27;;;;;;;4.40;2.35;;;;;;;;;;4956524;29;20145;-88
2021/08/27 02:07:54;;;;;;;5.22;2.67;;;;;;;;;;4956051;29;20547;-87
2021/08/27 02:10:20;;;;;;;5.00;2.40;;;;;;;;;;4955773;29;20062;-89
2021/08/27 02:12:46;;;;;;;5.47;2.63;;;;;;;;;;4955993;29;20039;-88
2021/08/27 02:15:12;;;;;;;6.45;2.55;;;;;;;;;;4957099;29;20027;-87
2021/08/27 02:17:38;;;;;;;4.10;2.35;;;;;;;;;;4955686;29;20087;-87
2021/08/27 02:20:05;;;;;;;8.43;2.95;;;;;;;;;;4940042;29;20031;-85
2021/08/27 02:22:33;;;;;;;5.38;2.40;;;;;;;;;;4955740;29;20035;-85
2021/08/27 02:24:59;;;;;;;3.83;2.55;;;;;;;;;;4955494;29;20046;-87
2021/08/27 02:27:26;;;;;;;4.15;2.15;;;;;;;;;;4955614;29;20027;-87
2021/08/27 02:29:55;;;;;;;4.97;2.35;;;;;;;;;;4955740;29;20027;-89
2021/08/27 02:32:21;;;;;;;4.97;2.58;;;;;;;;;;4955763;29;20370;-87
2021/08/27 02:34:48;;;;;;;6.00;2.88;;;;;;;;;;4955427;29;20054;-87
2021/08/27 02:37:16;;;;;;;6.97;2.58;;;;;;;;;;4955474;29;20166;-86
2021/08/27 02:39:42;;;;;;;4.07;2.15;;;;;;;;;;4955379;29;20496;-88
2021/08/27 02:42:09;;;;;;;5.47;2.50;;;;;;;;;;4955537;29;20038;-87
2021/08/27 02:44:35;;;;;;;6.70;2.30;;;;;;;;;;4955175;29;20023;-86
2021/08/27 02:47:02;;;;;;;6.07;2.30;;;;;;;;;;4955227;29;20050;-85
2021/08/27 02:49:28;;;;;;;5.22;2.08;;;;;;;;;;4954301;28;20020;-87
2021/08/27 02:52:13;;;;;;;4.07;2.22;;;;;;;;;;4955161;29;20392;-89
2021/08/27 02:55:05;;;;;;;3.58;1.70;;;;;;;;;;4955232;29;20481;-86
2021/08/27 02:57:44;;;;;;;3.35;1.70;;;;;;;;;;4932742;29;20046;-87
2021/08/27 03:00:11;;;;;;;2.85;1.48;;;;;;;;;;4955110;29;20031;-85
2021/08/27 03:02:37;;;;;;;3.13;1.55;;;;;;;;;;4955344;29;20024;-87
2021/08/27 03:05:06;;;;;;;4.30;1.90;;;;;;;;;;4955047;29;20043;-85
2021/08/27 03:07:34;;;;;;;3.20;1.70;;;;;;;;;;4954855;29;20027;-87
2021/08/27 03:10:03;;;;;;;4.13;1.58;;;;;;;;;;4954794;29;20054;-89
2021/08/27 03:12:41;;;;;;;4.03;1.83;;;;;;;;;;4954903;29;20496;-88
2021/08/27 03:15:09;;;;;;;3.85;1.90;;;;;;;;;;4954817;29;20476;-87
2021/08/27 03:17:38;;;;;;;4.65;2.05;;;;;;;;;;4954706;29;20034;-87
2021/08/27 03:20:11;;;;;;;3.42;2.03;;;;;;;;;;4954625;29;20027;-87
2021/08/27 03:22:46;;;;;;;3.45;1.65;;;;;;;;;;4954697;29;20026;-88
2021/08/27 03:25:14;;;;;;;2.97;1.85;;;;;;;;;;4954553;29;20047;-87
2021/08/27 03:27:42;;;;;;;4.38;2.33;;;;;;;;;;4954504;29;20034;-86
2021/08/27 03:30:28;;;;;;;3.47;1.95;;;;;;;;;;4954605;29;20078;-90
2021/08/27 03:32:57;;;;;;;3.95;2.03;;;;;;;;;;4955898;29;20377;-85
2021/08/27 03:35:24;;;;;;;3.97;2.03;;;;;;;;;;4954564;29;20024;-87
2021/08/27 03:37:51;;;;;;;3.95;2.22;;;;;;;;;;4955602;29;20071;-87
2021/08/27 03:40:18;;;;;;;3.88;2.10;;;;;;;;;;4954466;29;20094;-86
2021/08/27 03:42:45;;;;;;;4.32;2.40;;;;;;;;;;4954313;29;20078;-86
2021/08/27 03:45:11;;;;;;;3.53;2.30;;;;;;;;;;4955396;29;20043;-86
2021/08/27 03:47:42;;;;;;;4.63;2.05;;;;;;;;;;4954285;29;20035;-87
2021/08/27 03:50:10;;;;;;;9.05;2.45;;;;;;;;;;4954487;29;20107;-85
2021/08/27 03:52:36;;;;;;;3.30;2.03;;;;;;;;;;4954360;29;20059;-86
2021/08/27 03:55:04;;;;;;;4.13;2.33;;;;;;;;;;4954152;29;20038;-85
2021/08/27 03:57:31;;;;;;;4.40;2.33;;;;;;;;;;4954243;29;20039;-87
2021/08/27 03:59:58;;;;;;;5.03;2.17;;;;;;;;;;4958635;28;20028;-87
2021/08/27 04:02:24;;;;;;;6.22;2.20;;;;;;;;;;4960564;29;20032;-86
2021/08/27 04:05:06;;;;;;;3.55;2.05;;;;;;;;;;4960611;29;20472;-89
2021/08/27 04:07:32;;;;;;;3.88;2.08;;;;;;;;;;4960662;28;20492;-87
2021/08/27 04:09:59;;;;;;;5.55;2.40;;;;;;;;;;4960417;29;20057;-86
2021/08/27 04:12:25;;;;;;;3.90;2.15;;;;;;;;;;4960487;28;20117;-88
2021/08/27 04:14:51;;;;;;;3.65;2.38;;;;;;;;;;4961677;28;20042;-88
2021/08/27 04:17:17;;;;;;;4.57;2.00;;;;;;;;;;4960373;28;20024;-89
2021/08/27 04:19:43;;;;;;;2.88;1.95;;;;;;;;;;4961563;29;20031;-87
2021/08/27 04:22:10;;;;;;;4.05;2.03;;;;;;;;;;4960408;29;20555;-89
2021/08/27 04:24:36;;;;;;;4.78;1.88;;;;;;;;;;4962092;29;20532;-86
2021/08/27 04:27:02;;;;;;;4.78;2.35;;;;;;;;;;4962124;29;20111;-86
2021/08/27 04:29:28;;;;;;;3.78;2.33;;;;;;;;;;4960306;28;20084;-88
2021/08/27 04:31:56;;;;;;;6.72;1.70;;;;;;;;;;4961558;29;20460;-87
2021/08/27 04:34:23;;;;;;;3.47;1.80;;;;;;;;;;4960509;28;20028;-89
2021/08/27 04:36:49;;;;;;;3.63;2.00;;;;;;;;;;4961544;29;20027;-87
2021/08/27 04:39:15;;;;;;;3.45;1.85;;;;;;;;;;4960197;29;20404;-86
2021/08/27 04:41:41;;;;;;;5.43;2.10;;;;;;;;;;4960143;28;20027;-86
2021/08/27 04:44:08;;;;;;;3.78;1.95;;;;;;;;;;4960212;29;20040;-86
2021/08/27 04:46:34;;;;;;;6.97;2.38;;;;;;;;;;4962072;29;20031;-87
2021/08/27 04:49:00;;;;;;;3.75;1.60;;;;;;;;;;4960251;29;20023;-86
2021/08/27 04:51:26;;;;;;;3.67;1.88;;;;;;;;;;4960659;29;20027;-85
2021/08/27 04:53:52;;;;;;;4.22;2.00;;;;;;;;;;4959922;29;20062;-85
2021/08/27 04:56:18;;;;;;;4.00;1.90;;;;;;;;;;4961810;28;20388;-85
2021/08/27 04:58:44;;;;;;;3.88;2.03;;;;;;;;;;4961476;29;20168;-85
2021/08/27 05:01:11;;;;;;;4.82;1.85;;;;;;;;;;4960004;29;20148;-85
2021/08/27 05:03:37;;;;;;;3.60;2.00;;;;;;;;;;4959989;28;20055;-85
2021/08/27 05:06:03;;;;;;;2.65;1.40;;;;;;;;;;4960890;29;20039;-86
2021/08/27 05:08:29;;;;;;;2.17;1.17;;;;;;;;;;4962170;28;20027;-87
2021/08/27 05:10:55;;;;;;;2.55;1.08;;;;;;;;;;4958116;28;20559;-88
2021/08/27 05:13:21;;;;;;;3.85;1.25;;;;;;;;;;4957121;29;20027;-86
2021/08/27 05:15:48;;;;;;;3.75;1.30;;;;;;;;;;4957353;29;20464;-86
2021/08/27 05:18:14;;;;;;;4.63;1.40;;;;;;;;;;4941291;29;20032;-88
2021/08/27 05:20:40;;;;;;;2.88;1.30;;;;;;;;;;4957147;29;20548;-89
2021/08/27 05:23:06;;;;;;;2.05;0.95;;;;;;;;;;4957117;29;20023;-90
2021/08/27 05:25:33;;;;;;;4.80;1.50;;;;;;;;;;4958038;29;20061;-88
2021/08/27 05:27:59;;;;;;;2.47;1.23;;;;;;;;;;4940961;29;20027;-89
2021/08/27 05:30:25;;;;;;;1.95;0.80;;;;;;;;;;4956850;29;20035;-87
2021/08/27 05:32:52;;;;;;;1.90;0.98;;;;;;;;;;4956807;29;20034;-86
2021/08/27 05:35:18;;;;;;;2.78;1.00;;;;;;;;;;4956401;29;20031;-86
2021/08/27 05:37:44;;;;;;;3.35;0.98;;;;;;;;;;4956195;29;20531;-84
2021/08/27 05:40:11;;;;;;;2.35;0.77;;;;;;;;;;4949424;28;20039;-81
2021/08/27 05:42:38;;;;;;;1.58;0.85;;;;;;;;;;4941252;29;20050;-81
2021/08/27 05:45:05;;;;;;;2.00;0.70;;;;;;;;;;4921115;29;20074;-79
2021/08/27 05:47:31;;;;;;;1.58;0.80;;;;;;;;;;4934415;29;20028;-83
2021/08/27 05:49:58;;;;;;;6.18;1.00;;;;;;;;;;4955814;29;20130;-82
2021/08/27 05:52:24;;;;;;;2.10;1.08;;;;;;;;;;4958228;29;20027;-82
2021/08/27 05:54:50;;;;;;;2.53;1.27;;;;;;;;;;4956895;29;20086;-83
2021/08/27 05:57:16;;;;;;;3.50;1.15;;;;;;;;;;4955929;29;20031;-82
2021/08/27 05:59:43;;;;;;;2.33;1.20;;;;;;;;;;4941903;29;20469;-83
2021/08/27 06:02:09;;;;;;;2.42;1.35;;;;;;;;;;4921161;29;20031;-82
2021/08/27 06:04:35;;;;;;;2.03;1.20;;;;;;;;;;4920741;29;20031;-82
2021/08/27 06:07:01;;;;;;;2.50;1.40;;;;;;;;;;4938127;29;20039;-83
2021/08/27 06:09:27;;;;;;;2.45;1.40;;;;;;;;;;4920517;29;20044;-83
2021/08/27 06:11:53;;;;;;;3.60;1.27;;;;;;;;;;4920522;29;20465;-83
2021/08/27 06:14:19;;;;;;;1.90;1.13;;;;;;;;;;4920587;29;20027;-83
2021/08/27 06:16:45;;;;;;;4.53;1.20;;;;;;;;;;4933988;29;20035;-82
2021/08/27 06:19:12;;;;;;;2.58;1.08;;;;;;;;;;4954334;29;20034;-83
2021/08/27 06:21:39;;;;;;;2.30;1.00;;;;;;;;;;4949434;29;20074;-83
2021/08/27 06:24:05;;;;;;;1.77;0.95;;;;;;;;;;4920401;29;20038;-82
2021/08/27 06:26:32;;;;;;;2.10;1.08;;;;;;;;;;4937535;29;20046;-83
2021/08/27 06:29:00;;;;;;;2.35;1.10;;;;;;;;;;4937719;29;20106;-82
2021/08/27 06:31:27;;;;;;;2.15;0.88;;;;;;;;;;4937447;29;20040;-83
2021/08/27 06:33:53;;;;;;;2.28;1.00;;;;;;;;;;4926746;29;20025;-82
2021/08/27 06:36:20;;;;;;;2.20;1.10;;;;;;;;;;4955269;29;20047;-83
2021/08/27 06:38:46;;;;;;;1.67;0.80;;;;;;;;;;4939134;29;20122;-84
2021/08/27 06:41:12;;;;;;;2.03;0.98;;;;;;;;;;4955002;29;20126;-83
2021/08/27 06:43:41;;;;;;;1.98;1.02;;;;;;;;;;4955092;29;20028;-83
2021/08/27 06:46:09;;;;;;;1.83;0.85;;;;;;;;;;4954954;29;20431;-84
2021/08/27 06:48:35;;;;;;;5.85;0.93;;;;;;;;;;4956255;29;20034;-85
2021/08/27 06:51:01;;;;;;;4.40;0.75;;;;;;;;;;4954851;29;20073;-82
2021/08/27 06:53:27;;;;;;;1.73;0.70;;;;;;;;;;4955093;29;20031;-84
2021/08/27 06:55:54;;;;;;;2.28;0.93;;;;;;;;;;4954925;29;20066;-83
2021/08/27 06:58:20;;;;;;;3.00;0.68;;;;;;;;;;4956141;29;20024;-84
2021/08/27 07:00:46;;;;;;;2.22;0.95;;;;;;;;;;4954647;29;20038;-82
2021/08/27 07:03:12;;;;;;;1.88;0.80;;;;;;;;;;4954649;29;20038;-82
2021/08/27 07:05:38;;;;;;;4.10;1.20;;;;;;;;;;4955088;29;20089;-82
2021/08/27 07:08:04;;;;;;;4.88;0.98;;;;;;;;;;4954631;29;20019;-82
2021/08/27 07:10:31;;;;;;;2.95;0.98;;;;;;;;;;4955617;29;20054;-82
2021/08/27 07:12:57;;;;;;;1.67;0.60;;;;;;;;;;4938527;29;20023;-82
2021/08/27 07:15:24;;;;;;;4.03;0.70;;;;;;;;;;4938631;29;20027;-82
2021/08/27 07:17:51;;;;;;;2.10;0.70;;;;;;;;;;4938602;29;20027;-83
2021/08/27 07:20:17;;;;;;;1.75;0.70;;;;;;;;;;4955720;29;20031;-83
2021/08/27 07:22:44;;;;;;;1.48;0.70;;;;;;;;;;4938489;29;20027;-81
2021/08/27 07:25:11;;;;;;;1.60;0.90;;;;;;;;;;4938399;29;20058;-83
2021/08/27 07:27:37;;;;;;;1.45;0.65;;;;;;;;;;4938388;29;20083;-81
2021/08/27 07:30:04;;;;;;;1.60;0.60;;;;;;;;;;4938411;29;20031;-82
2021/08/27 07:32:30;;;;;;;1.90;0.65;;;;;;;;;;4938320;29;20031;-82
2021/08/27 07:34:56;;;;;;;1.60;0.60;;;;;;;;;;4937713;29;20499;-83
2021/08/27 07:37:22;;;;;;;1.80;0.70;;;;;;;;;;4938160;29;20031;-82
2021/08/27 07:39:48;;;;;;;1.92;0.68;;;;;;;;;;4937833;29;20024;-82
2021/08/27 07:42:14;;;;;;;2.08;0.90;;;;;;;;;;4938164;29;20035;-83
2021/08/27 07:44:40;;;;;;;1.77;0.70;;;;;;;;;;4938095;29;20473;-82
2021/08/27 07:47:07;;;;;;;1.42;0.50;;;;;;;;;;4938089;29;20058;-82
2021/08/27 07:49:33;;;;;;;2.58;0.65;;;;;;;;;;4937850;29;20019;-83
2021/08/27 07:51:59;;;;;;;2.45;0.65;;;;;;;;;;4937722;29;20400;-83
2021/08/27 07:54:25;;;;;;;2.35;0.75;;;;;;;;;;4937708;29;20028;-81
2021/08/27 07:56:51;;;;;;;1.92;0.80;;;;;;;;;;4937956;29;20178;-82
2021/08/27 07:59:17;;;;;;;2.65;0.70;;;;;;;;;;4955174;29;20046;-81
2021/08/27 08:01:44;;;;;;;1.15;0.55;;;;;;;;;;4938023;29;20486;-81
2021/08/27 08:04:10;;;;;;;3.28;0.65;;;;;;;;;;4937948;29;20047;-82
2021/08/27 08:06:36;;;;;;;2.03;0.60;;;;;;;;;;4937862;29;20556;-82
2021/08/27 08:09:03;;;;;;;1.58;0.40;;;;;;;;;;4954887;29;20114;-81
2021/08/27 08:11:29;;;;;;;1.10;0.38;;;;;;;;;;4922788;29;20028;-82
2021/08/27 08:13:55;;;;;;;1.27;0.50;;;;;;;;;;4918891;29;20032;-82
2021/08/27 08:16:22;;;;;;;1.50;0.40;;;;;;;;;;4935882;29;20023;-81
2021/08/27 08:18:48;;;;;;;1.88;0.60;;;;;;;;;;4918712;29;20032;-80
2021/08/27 08:21:17;;;;;;;1.83;0.50;;;;;;;;;;4918767;29;20027;-81
2021/08/27 08:23:43;;;;;;;1.98;0.57;;;;;;;;;;4918831;29;20035;-80
2021/08/27 08:26:09;;;;;;;1.20;0.50;;;;;;;;;;4918767;29;20095;-80
2021/08/27 08:28:36;;;;;;;1.67;0.60;;;;;;;;;;4918782;29;20028;-80
2021/08/27 08:31:02;;;;;;;1.88;0.50;;;;;;;;;;4918638;29;20047;-77
2021/08/27 08:33:28;;;;;;;1.88;0.70;;;;;;;;;;4918694;29;20500;-80
2021/08/27 08:35:54;;;;;;;2.80;0.90;;;;;;;;;;4918703;29;20099;-81
2021/08/27 08:38:22;;;;;;;1.83;0.80;;;;;;;;;;4918687;29;20028;-81
2021/08/27 08:40:48;;;;;;;2.00;1.20;;;;;;;;;;4918614;29;20035;-81
2021/08/27 08:43:15;;;;;;;1.63;0.80;;;;;;;;;;4935612;29;20495;-81
2021/08/27 08:45:50;;;;;;;3.88;0.70;;;;;;;;;;4918538;29;20087;-81
2021/08/27 08:48:20;;;;;;;1.10;0.60;;;;;;;;;;4921901;29;20098;-82
2021/08/27 08:50:46;;;;;;;1.25;0.60;;;;;;;;;;4922025;29;20082;-81
2021/08/27 08:53:13;;;;;;;1.98;0.95;;;;;;;;;;4921983;29;20076;-80
2021/08/27 08:55:40;;;;;;;1.38;0.75;;;;;;;;;;4939113;29;20031;-80
2021/08/27 08:58:07;;;;;;;2.05;0.70;;;;;;;;;;4939106;29;20027;-80
2021/08/27 09:00:33;;;;;;;2.38;0.50;;;;;;;;;;4921978;29;20028;-76
2021/08/27 09:02:59;;;;;;;1.58;0.77;;;;;;;;;;4921746;29;20028;-81
2021/08/27 09:05:26;;;;;;;2.35;1.30;;;;;;;;;;4939244;29;20130;-82
2021/08/27 09:07:52;;;;;;;1.30;0.50;;;;;;;;;;4921799;29;20032;-81
2021/08/27 09:10:19;;;;;;;1.48;0.50;;;;;;;;;;4924021;29;20538;-83
2021/08/27 09:12:46;;;;;;;3.83;0.95;;;;;;;;;;4940705;29;20023;-80
2021/08/27 09:15:12;;;;;;;2.40;0.30;;;;;;;;;;4957885;29;20039;-80
2021/08/27 09:17:40;;;;;;;2.45;0.60;;;;;;;;;;4940727;29;20027;-82
2021/08/27 09:20:19;;;;;;;0.82;0.40;;;;;;;;;;4957930;29;20039;-82
2021/08/27 09:22:48;;;;;;;1.02;0.50;;;;;;;;;;4940583;29;20477;-81
2021/08/27 09:25:16;;;;;;;1.42;0.32;;;;;;;;;;4940381;29;20106;-80
2021/08/27 09:28:00;;;;;;;1.33;0.50;;;;;;;;;;4940496;29;20027;-80
2021/08/27 09:30:27;;;;;;;2.08;0.50;;;;;;;;;;4957859;29;20039;-82
2021/08/27 09:32:56;;;;;;;1.30;0.50;;;;;;;;;;4940421;29;20055;-80
2021/08/27 09:35:23;;;;;;;1.15;0.50;;;;;;;;;;4940339;29;20027;-81
2021/08/27 09:37:54;;;;;;;1.83;0.70;;;;;;;;;;4940219;29;20129;-81
2021/08/27 09:40:27;;;;;;;2.10;0.60;;;;;;;;;;4940315;29;20031;-81
2021/08/27 09:42:54;;;;;;;1.73;0.60;;;;;;;;;;4940129;29;20031;-81
2021/08/27 09:45:32;;;;;;;2.05;1.40;;;;;;;;;;4940104;29;20118;-81
2021/08/27 09:48:02;;;;;;;1.67;0.60;;;;;;;;;;4940077;29;20030;-81
2021/08/27 09:50:33;;;;;;;1.23;0.70;;;;;;;;;;4940079;29;20019;-81
2021/08/27 09:53:00;;;;;;;3.28;0.88;;;;;;;;;;4939951;29;20397;-81
2021/08/27 09:55:27;;;;;;;2.20;0.50;;;;;;;;;;4940082;29;20472;-82
2021/08/27 09:58:10;;;;;;;0.90;0.50;;;;;;;;;;4939434;29;20062;-81
2021/08/27 10:00:41;;;;;;;1.20;0.45;;;;;;;;;;4938296;29;20110;-83
2021/08/27 10:03:20;;;;;;;1.30;0.60;;;;;;;;;;4926704;29;20498;-81
2021/08/27 10:05:48;;;;;;;2.50;0.65;;;;;;;;;;4946915;29;20029;-79
2021/08/27 10:08:15;;;;;;;2.22;0.68;;;;;;;;;;4949610;29;20107;-80
2021/08/27 10:10:44;;;;;;;1.58;0.52;;;;;;;;;;4929271;29;20070;-79
2021/08/27 10:13:11;;;;;;;1.52;0.47;;;;;;;;;;4939296;29;20475;-80
2021/08/27 10:15:38;;;;;;;1.33;0.50;;;;;;;;;;4939701;29;20039;-81
2021/08/27 10:18:09;;;;;;;1.27;0.50;;;;;;;;;;4937983;29;20444;-82
2021/08/27 10:20:39;;;;;;;0.88;0.52;;;;;;;;;;4929265;29;20040;-83
2021/08/27 10:23:10;;;;;;;2.08;0.70;;;;;;;;;;4937329;29;20047;-82
2021/08/27 10:25:37;;;;;;;1.45;0.60;;;;;;;;;;4919846;29;20055;-81
2021/08/27 10:28:04;;;;;;;1.10;0.50;;;;;;;;;;4920371;29;20055;-81
2021/08/27 10:30:48;;;;;;;1.05;0.50;;;;;;;;;;4920377;29;20130;-81
2021/08/27 10:33:18;;;;;;;1.00;0.40;;;;;;;;;;4920293;29;20040;-81
2021/08/27 10:35:51;;;;;;;1.38;0.50;;;;;;;;;;4920758;29;20024;-81
2021/08/27 10:38:35;;;;;;;0.73;0.35;;;;;;;;;;4937363;29;20024;-82
2021/08/27 10:41:28;;;;;;;0.77;0.30;;;;;;;;;;4920189;29;20039;-82
2021/08/27 10:43:59;;;;;;;2.90;0.50;;;;;;;;;;4885051;29;20031;-81
2021/08/27 10:46:48;;;;;;;0.70;0.30;;;;;;;;;;4937298;29;20119;-82
2021/08/27 10:49:40;;;;;;;1.98;0.45;;;;;;;;;;4919886;29;20032;-82
2021/08/27 10:52:25;;;;;;;0.38;0.20;;;;;;;;;;4936424;29;20381;-82
2021/08/27 10:55:17;;;;;;;0.20;0.10;;;;;;;;;;4918956;29;20177;-83
2021/08/27 10:57:43;;;;;;;0.35;0.15;;;;;;;;;;4915988;29;20039;-83
2021/08/27 11:00:10;;;;;;;0.93;0.20;;;;;;;;;;4919809;29;20035;-82
2021/08/27 11:02:54;;;;;;;0.65;0.20;;;;;;;;;;4937095;29;20067;-82
2021/08/27 11:05:46;;;;;;;1.10;0.10;;;;;;;;;;4937192;29;20072;-83
2021/08/27 11:08:16;;;;;;;0.55;0.17;;;;;;;;;;4932578;29;20119;-81
2021/08/27 11:10:44;;;;;;;1.55;0.40;;;;;;;;;;4927715;29;20125;-81
2021/08/27 11:13:11;;;;;;;0.65;0.32;;;;;;;;;;4938452;29;20498;-82
2021/08/27 11:15:37;;;;;;;0.60;0.20;;;;;;;;;;4938610;29;20050;-83
2021/08/27 11:18:08;;;;;;;1.38;0.20;;;;;;;;;;4938581;29;20050;-81
2021/08/27 11:20:34;;;;;;;0.60;0.20;;;;;;;;;;4938543;29;20035;-81
2021/08/27 11:23:00;;;;;;;1.05;0.40;;;;;;;;;;4938515;29;20055;-82
2021/08/27 11:25:27;;;;;;;0.68;0.30;;;;;;;;;;4938307;29;20027;-82
2021/08/27 11:28:25;;;;;;;3.83;0.43;;;;;;;;;;4938407;29;20030;-82
2021/08/27 11:31:08;;;;;;;0.70;0.30;;;;;;;;;;4896555;29;20443;-80
2021/08/27 11:33:46;;;;;;;0.50;0.30;;;;;;;;;;4938335;29;20064;-81
2021/08/27 11:36:13;;;;;;;1.75;0.47;;;;;;;;;;4956170;29;20365;-81
2021/08/27 11:38:40;;;;;;;0.63;0.28;;;;;;;;;;4938444;29;20023;-81
2021/08/27 11:41:06;;;;;;;1.10;0.28;;;;;;;;;;4938139;29;20114;-82
2021/08/27 11:43:35;;;;;;;0.90;0.45;;;;;;;;;;4938166;29;20115;-81
2021/08/27 11:46:05;;;;;;;0.65;0.28;;;;;;;;;;4938137;29;20039;-82
2021/08/27 11:48:39;;;;;;;0.80;0.30;;;;;;;;;;4955414;29;20387;-82
2021/08/27 11:51:07;;;;;;;0.63;0.22;;;;;;;;;;4955770;29;20055;-82
2021/08/27 11:53:33;;;;;;;1.98;0.52;;;;;;;;;;4938254;29;20031;-81
2021/08/27 11:55:59;;;;;;;4.95;0.50;;;;;;;;;;4938057;29;20027;-80
2021/08/27 11:58:40;;;;;;;1.73;0.40;;;;;;;;;;4938129;29;20074;-81
2021/08/27 12:01:06;;;;;;;0.63;0.30;;;;;;;;;;4937938;29;20114;-81
2021/08/27 12:03:32;;;;;;;1.58;0.40;;;;;;;;;;4938037;29;20027;-80
2021/08/27 12:05:58;;;;;;;0.95;0.50;;;;;;;;;;4955118;29;20392;-82
2021/08/27 12:08:28;;;;;;;1.55;0.38;;;;;;;;;;4937977;29;20027;-81
2021/08/27 12:10:54;;;;;;;1.23;0.38;;;;;;;;;;4937607;29;20062;-82
2021/08/27 12:13:20;;;;;;;1.15;0.30;;;;;;;;;;4937944;29;20097;-81
2021/08/27 12:15:46;;;;;;;1.33;0.50;;;;;;;;;;4937931;29;20034;-81
2021/08/27 12:18:14;;;;;;;1.48;0.52;;;;;;;;;;4938039;29;20373;-81
2021/08/27 12:20:42;;;;;;;2.13;0.57;;;;;;;;;;4939084;29;20027;-81
2021/08/27 12:23:13;;;;;;;2.38;0.40;;;;;;;;;;4941693;29;20042;-81
2021/08/27 12:25:43;;;;;;;1.23;0.32;;;;;;;;;;4941654;29;20511;-81
2021/08/27 12:28:10;;;;;;;1.58;0.30;;;;;;;;;;4941810;29;20031;-82
2021/08/27 12:30:43;;;;;;;0.55;0.30;;;;;;;;;;4942074;29;20031;-83
2021/08/27 12:33:09;;;;;;;0.90;0.30;;;;;;;;;;4958868;29;20075;-82
2021/08/27 12:35:35;;;;;;;1.17;0.40;;;;;;;;;;4959080;29;20031;-82
2021/08/27 12:38:05;;;;;;;0.95;0.30;;;;;;;;;;4959311;29;20110;-81
2021/08/27 12:40:32;;;;;;;1.02;0.43;;;;;;;;;;4959007;29;20388;-82
2021/08/27 12:42:58;;;;;;;0.57;0.30;;;;;;;;;;4941440;29;20031;-81
2021/08/27 12:45:24;;;;;;;1.73;0.50;;;;;;;;;;4941421;29;20046;-81
2021/08/27 12:47:53;;;;;;;1.88;0.60;;;;;;;;;;4941396;29;20031;-81
2021/08/27 12:50:19;;;;;;;1.35;0.50;;;;;;;;;;4941324;29;20110;-81
2021/08/27 12:53:02;;;;;;;2.97;0.70;;;;;;;;;;4941141;29;20086;-81
2021/08/27 12:55:29;;;;;;;1.35;0.60;;;;;;;;;;4941220;29;20059;-80
2021/08/27 12:57:55;;;;;;;2.35;0.70;;;;;;;;;;4958338;29;20027;-81
2021/08/27 13:00:24;;;;;;;2.85;0.70;;;;;;;;;;4941082;29;20127;-81
2021/08/27 13:02:51;;;;;;;2.25;0.50;;;;;;;;;;4941130;29;20023;-80
2021/08/27 13:05:36;;;;;;;1.05;0.50;;;;;;;;;;4958058;29;20040;-81
2021/08/27 13:08:13;;;;;;;1.20;0.50;;;;;;;;;;4940939;29;20035;-81
2021/08/27 13:10:40;;;;;;;0.98;0.50;;;;;;;;;;4949385;29;20449;-81
2021/08/27 13:13:22;;;;;;;2.38;0.60;;;;;;;;;;4921728;29;20036;-81
2021/08/27 13:16:03;;;;;;;1.15;0.50;;;;;;;;;;4921783;29;20027;-81
2021/08/27 13:18:37;;;;;;;1.10;0.50;;;;;;;;;;4921705;29;20547;-82
2021/08/27 13:21:04;;;;;;;1.15;0.45;;;;;;;;;;4921615;29;20027;-81
2021/08/27 13:23:31;;;;;;;0.98;0.40;;;;;;;;;;4921652;29;20070;-81
2021/08/27 13:25:58;;;;;;;1.75;0.52;;;;;;;;;;4921522;29;20377;-81
2021/08/27 13:28:25;;;;;;;1.95;0.50;;;;;;;;;;4921452;29;20028;-81
2021/08/27 13:30:52;;;;;;;3.25;0.80;;;;;;;;;;4921535;29;20035;-81
2021/08/27 13:33:18;;;;;;;1.67;0.60;;;;;;;;;;4920608;29;20063;-82
2021/08/27 13:35:44;;;;;;;1.30;0.50;;;;;;;;;;4921444;29;20114;-82
2021/08/27 13:38:11;;;;;;;3.97;0.47;;;;;;;;;;4921571;29;20075;-81
2021/08/27 13:40:37;;;;;;;4.32;0.47;;;;;;;;;;4940516;29;20027;-82
2021/08/27 13:43:04;;;;;;;0.95;0.40;;;;;;;;;;4921245;29;20050;-81
2021/08/27 13:45:33;;;;;;;1.48;0.43;;;;;;;;;;4921204;29;20039;-80
2021/08/27 13:47:59;;;;;;;1.75;0.50;;;;;;;;;;4921215;29;20024;-81
2021/08/27 13:50:25;;;;;;;1.67;0.80;;;;;;;;;;4921218;29;20055;-81
2021/08/27 13:52:51;;;;;;;2.05;1.08;;;;;;;;;;4921162;29;20024;-81
2021/08/27 13:55:19;;;;;;;2.25;0.60;;;;;;;;;;4938122;29;20032;-81
2021/08/27 13:57:45;;;;;;;0.80;0.40;;;;;;;;;;4935158;29;20030;-82
2021/08/27 14:00:13;;;;;;;0.68;0.30;;;;;;;;;;4920972;29;20035;-80
2021/08/27 14:02:39;;;;;;;2.20;0.57;;;;;;;;;;4921140;29;20118;-82
2021/08/27 14:05:06;;;;;;;1.08;0.40;;;;;;;;;;4920671;29;20126;-82
2021/08/27 14:07:32;;;;;;;1.10;0.40;;;;;;;;;;4921308;29;20071;-82
2021/08/27 14:09:58;;;;;;;1.10;0.50;;;;;;;;;;4938058;29;20048;-83
2021/08/27 14:12:24;;;;;;;1.50;0.40;;;;;;;;;;4921048;29;20039;-84
2021/08/27 14:14:50;;;;;;;2.05;0.47;;;;;;;;;;4920888;29;20492;-84
2021/08/27 14:17:16;;;;;;;1.98;0.52;;;;;;;;;;4921070;29;20039;-86
2021/08/27 14:19:42;;;;;;;0.65;0.32;;;;;;;;;;4937902;29;20036;-81
2021/08/27 14:22:09;;;;;;;4.00;0.50;;;;;;;;;;4938085;29;20030;-85
2021/08/27 14:24:35;;;;;;;1.63;0.50;;;;;;;;;;4920574;29;20511;-84
2021/08/27 14:27:01;;;;;;;1.67;0.30;;;;;;;;;;4920625;29;20511;-84
2021/08/27 14:29:27;;;;;;;1.20;0.32;;;;;;;;;;4920586;29;20043;-84
2021/08/27 14:31:55;;;;;;;1.33;0.55;;;;;;;;;;4920662;29;20027;-85
2021/08/27 14:34:21;;;;;;;5.00;0.50;;;;;;;;;;4920512;29;20519;-84
2021/08/27 14:36:49;;;;;;;1.83;0.60;;;;;;;;;;4920418;29;20079;-85
2021/08/27 14:39:15;;;;;;;3.20;0.43;;;;;;;;;;4920431;29;20039;-85
2021/08/27 14:41:41;;;;;;;22.17;1.63;;;;;;;;;;4922872;28;20034;-83
2021/08/27 14:44:07;;;;;;;1.38;0.60;;;;;;;;;;4937429;29;20027;-83
2021/08/27 14:46:33;;;;;;;15.48;1.67;;;;;;;;;;4939622;29;20071;-84
2021/08/27 14:48:59;;;;;;;1.70;0.50;;;;;;;;;;4938996;29;20484;-83
2021/08/27 14:51:26;;;;;;;2.38;0.47;;;;;;;;;;4939132;29;20081;-82